Time;durP1;ratioP1;P1;durP2;ratioP2;P2;SDS_P1;SDS_P2;PMS_P1;PMS_P2;Temp;Humidity;BMP_temperature;BMP_pressure;BME280_temperature;BME280_humidity;BME280_pressure;Samples;Min_cycle;Max_cycle;Signal;HPM_P1;HPM_P2
2022/03/17 00:02:04;;;;;;;;;;;10.60;99.90;;;;;;6245420;23;20264;-72
2022/03/17 00:04:31;;;;;;;;;;;10.60;99.90;;;;;;6244816;23;19982;-73
2022/03/17 00:06:57;;;;;;;;;;;10.60;99.90;;;;;;6245227;23;19950;-73
2022/03/17 00:09:26;;;;;;;;;;;10.50;99.90;;;;;;6244580;23;20217;-73
2022/03/17 00:11:52;;;;;;;;;;;10.50;99.90;;;;;;6245145;23;20329;-73
2022/03/17 00:14:18;;;;;;;;;;;10.40;99.90;;;;;;6244837;23;20170;-73
2022/03/17 00:16:44;;;;;;;;;;;10.40;99.90;;;;;;6245048;23;19908;-72
2022/03/17 00:19:10;;;;;;;;;;;10.40;99.90;;;;;;6244738;23;19903;-73
2022/03/17 00:21:36;;;;;;;;;;;10.40;99.90;;;;;;6244642;23;19903;-72
2022/03/17 00:24:03;;;;;;;;;;;10.40;99.90;;;;;;6245251;23;19911;-72
2022/03/17 00:26:29;;;;;;;;;;;10.50;99.90;;;;;;6244684;23;20026;-73
2022/03/17 00:29:13;;;;;;;;;;;10.50;99.90;;;;;;6244636;23;19903;-73
2022/03/17 00:31:39;;;;;;;;;;;10.50;99.90;;;;;;6244686;23;20033;-73
2022/03/17 00:34:08;;;;;;;;;;;10.50;99.90;;;;;;6217625;23;19904;-73
2022/03/17 00:36:36;;;;;;;;;;;10.50;99.90;;;;;;6244610;23;19930;-72
2022/03/17 00:39:04;;;;;;;;;;;10.50;99.90;;;;;;6244464;23;19951;-73
2022/03/17 00:41:30;;;;;;;;;;;10.50;99.90;;;;;;6217560;23;19904;-72
2022/03/17 00:43:56;;;;;;;;;;;10.60;99.90;;;;;;6244685;23;19904;-72
2022/03/17 00:46:22;;;;;;;;;;;10.60;99.90;;;;;;6244638;23;19990;-72
2022/03/17 00:48:48;;;;;;;;;;;10.60;99.90;;;;;;6244621;23;19904;-73
2022/03/17 00:51:14;;;;;;;;;;;10.60;99.90;;;;;;6244728;23;19908;-71
2022/03/17 00:53:39;;;;;;;;;;;10.60;99.90;;;;;;6244692;23;19907;-73
2022/03/17 00:56:05;;;;;;;;;;;10.60;99.90;;;;;;6245024;23;19953;-72
2022/03/17 00:58:31;;;;;;;;;;;10.60;99.90;;;;;;6244455;23;19923;-74
2022/03/17 01:00:57;;;;;;;;;;;10.60;99.90;;;;;;6244586;23;19926;-73
2022/03/17 01:03:23;;;;;;;;;;;10.50;99.90;;;;;;6217502;23;19959;-72
2022/03/17 01:05:48;;;;;;;;;;;10.60;99.90;;;;;;6244448;23;19914;-72
2022/03/17 01:08:14;;;;;;;;;;;10.50;99.90;;;;;;6244819;23;19916;-73
2022/03/17 01:10:42;;;;;;;;;;;10.50;99.90;;;;;;6244328;23;19903;-72
2022/03/17 01:13:08;;;;;;;;;;;10.40;99.90;;;;;;6244351;23;19903;-73
2022/03/17 01:15:34;;;;;;;;;;;10.40;99.90;;;;;;6244957;23;19908;-73
2022/03/17 01:18:00;;;;;;;;;;;10.40;99.90;;;;;;6244637;23;19926;-73
2022/03/17 01:20:26;;;;;;;;;;;10.40;99.90;;;;;;6244922;23;19973;-72
2022/03/17 01:22:52;;;;;;;;;;;10.40;99.90;;;;;;6217572;23;20205;-72
2022/03/17 01:25:18;;;;;;;;;;;10.30;99.90;;;;;;6217441;23;19979;-72
2022/03/17 01:27:44;;;;;;;;;;;10.30;99.90;;;;;;6244289;23;19915;-70
2022/03/17 01:30:10;;;;;;;;;;;10.30;99.90;;;;;;6217300;23;19904;-71
2022/03/17 01:32:38;;;;;;;;;;;10.30;99.90;;;;;;6244315;23;19950;-71
2022/03/17 01:35:05;;;;;;;;;;;10.30;99.90;;;;;;6217268;23;19908;-72
2022/03/17 01:37:33;;;;;;;;;;;10.30;99.90;;;;;;6244781;23;19939;-72
2022/03/17 01:39:59;;;;;;;;;;;10.20;99.90;;;;;;6244508;23;19904;-74
2022/03/17 01:42:24;;;;;;;;;;;10.30;99.90;;;;;;6244287;23;19911;-70
2022/03/17 01:44:50;;;;;;;;;;;10.20;99.90;;;;;;6244195;23;20277;-73
2022/03/17 01:47:28;;;;;;;;;;;10.20;99.90;;;;;;6217475;23;20324;-75
2022/03/17 01:50:08;;;;;;;;;;;10.20;99.90;;;;;;6246754;23;19916;-72
2022/03/17 01:52:34;;;;;;;;;;;10.20;99.90;;;;;;6246357;23;19926;-71
2022/03/17 01:55:00;;;;;;;;;;;10.10;99.90;;;;;;6246848;23;19957;-71
2022/03/17 01:57:26;;;;;;;;;;;10.10;99.90;;;;;;6218967;23;19916;-73
2022/03/17 01:59:52;;;;;;;;;;;10.10;99.90;;;;;;6220147;23;20322;-73
2022/03/17 02:02:18;;;;;;;;;;;10.10;99.90;;;;;;6246555;23;19934;-74
2022/03/17 02:04:47;;;;;;;;;;;10.00;99.90;;;;;;6246159;23;19908;-73
2022/03/17 02:07:14;;;;;;;;;;;10.10;99.90;;;;;;6246055;23;19919;-72
2022/03/17 02:09:40;;;;;;;;;;;10.10;99.90;;;;;;6246034;23;19907;-72
2022/03/17 02:14:52;;;;;;;;;;;10.00;99.90;;;;;;6246013;23;19991;-71
2022/03/17 02:17:18;;;;;;;;;;;10.00;99.90;;;;;;6218920;23;19910;-71
2022/03/17 02:19:44;;;;;;;;;;;10.00;99.90;;;;;;6218922;23;20247;-71
2022/03/17 02:22:14;;;;;;;;;;;10.00;99.90;;;;;;6246331;23;19986;-74
2022/03/17 02:27:28;;;;;;;;;;;10.00;99.90;;;;;;6246346;23;19918;-73
2022/03/17 02:29:54;;;;;;;;;;;10.10;99.90;;;;;;6218762;23;19911;-71
2022/03/17 02:32:20;;;;;;;;;;;10.20;99.90;;;;;;6245782;23;19903;-71
2022/03/17 02:34:46;;;;;;;;;;;10.20;99.90;;;;;;6245659;23;19957;-72
2022/03/17 02:37:15;;;;;;;;;;;10.20;99.90;;;;;;6246317;23;19911;-71
2022/03/17 02:39:42;;;;;;;;;;;10.30;99.90;;;;;;6245759;23;20370;-72
2022/03/17 02:42:10;;;;;;;;;;;10.30;99.90;;;;;;6246268;23;19985;-72
2022/03/17 02:44:39;;;;;;;;;;;10.40;99.90;;;;;;6245475;23;19946;-70
2022/03/17 02:47:05;;;;;;;;;;;10.40;99.90;;;;;;6245383;23;20002;-72
2022/03/17 02:49:32;;;;;;;;;;;10.40;99.90;;;;;;6245926;23;19946;-71
2022/03/17 02:51:57;;;;;;;;;;;10.40;99.90;;;;;;6245433;23;19904;-71
2022/03/17 02:54:23;;;;;;;;;;;10.40;99.90;;;;;;6246109;23;19910;-72
2022/03/17 02:56:49;;;;;;;;;;;10.40;99.90;;;;;;6245265;23;19903;-71
2022/03/17 02:59:15;;;;;;;;;;;10.40;99.90;;;;;;6245589;23;20332;-71
2022/03/17 03:01:41;;;;;;;;;;;10.40;99.90;;;;;;6245183;23;19991;-71
2022/03/17 03:04:07;;;;;;;;;;;10.40;99.90;;;;;;6245282;23;19942;-71
2022/03/17 03:06:33;;;;;;;;;;;10.40;99.90;;;;;;6245364;23;20193;-72
2022/03/17 03:08:59;;;;;;;;;;;10.40;99.90;;;;;;6245350;23;19904;-72
2022/03/17 03:11:25;;;;;;;;;;;10.30;99.90;;;;;;6245275;23;19914;-71
2022/03/17 03:13:51;;;;;;;;;;;10.30;99.90;;;;;;6245295;23;19903;-70
2022/03/17 03:16:17;;;;;;;;;;;10.20;99.90;;;;;;6245250;23;19904;-71
2022/03/17 03:18:44;;;;;;;;;;;10.30;99.90;;;;;;6245372;23;19903;-71
2022/03/17 03:21:09;;;;;;;;;;;10.20;99.90;;;;;;6245077;23;19908;-73
2022/03/17 03:23:35;;;;;;;;;;;10.30;99.90;;;;;;6245713;23;20332;-72
2022/03/17 03:26:01;;;;;;;;;;;10.30;99.90;;;;;;6245189;23;19982;-72
2022/03/17 03:28:27;;;;;;;;;;;10.20;99.90;;;;;;6245489;23;20267;-72
2022/03/17 03:30:54;;;;;;;;;;;10.20;99.90;;;;;;6244058;23;20045;-72
2022/03/17 03:33:20;;;;;;;;;;;10.20;99.90;;;;;;6244104;23;19990;-72
2022/03/17 03:38:37;;;;;;;;;;;10.20;99.90;;;;;;6244356;23;19911;-71
2022/03/17 03:41:03;;;;;;;;;;;10.10;99.90;;;;;;6217548;23;19904;-72
2022/03/17 03:43:30;;;;;;;;;;;10.20;99.90;;;;;;6245091;23;19938;-71
2022/03/17 03:45:56;;;;;;;;;;;10.10;99.90;;;;;;6216727;23;20346;-71
2022/03/17 03:48:21;;;;;;;;;;;10.20;99.90;;;;;;6244272;23;19951;-72
2022/03/17 03:50:47;;;;;;;;;;;10.10;99.90;;;;;;6244665;23;20208;-72
2022/03/17 03:53:13;;;;;;;;;;;10.10;99.90;;;;;;6217216;23;19904;-72
2022/03/17 03:55:39;;;;;;;;;;;10.10;99.90;;;;;;6244421;23;19911;-72
2022/03/17 03:58:05;;;;;;;;;;;10.10;99.90;;;;;;6244266;23;19919;-71
2022/03/17 04:02:57;;;;;;;;;;;10.10;99.90;;;;;;6244765;23;19953;-72
2022/03/17 04:05:27;;;;;;;;;;;10.00;99.90;;;;;;6244373;23;19908;-72
2022/03/17 04:07:56;;;;;;;;;;;9.90;99.90;;;;;;6244749;23;19918;-72
2022/03/17 04:10:23;;;;;;;;;;;10.00;99.90;;;;;;6245053;23;19904;-72
2022/03/17 04:12:49;;;;;;;;;;;10.00;99.90;;;;;;6244996;23;20030;-72
2022/03/17 04:15:15;;;;;;;;;;;10.00;99.90;;;;;;6245066;23;19908;-71
2022/03/17 04:17:41;;;;;;;;;;;10.00;99.90;;;;;;6244738;23;20315;-72
2022/03/17 04:20:07;;;;;;;;;;;10.00;99.90;;;;;;6245128;23;20395;-72
2022/03/17 04:22:33;;;;;;;;;;;10.00;99.90;;;;;;6244898;23;19904;-72
2022/03/17 04:24:59;;;;;;;;;;;10.00;99.90;;;;;;6218366;23;19903;-72
2022/03/17 04:27:25;;;;;;;;;;;10.10;99.90;;;;;;6245365;23;20001;-71
2022/03/17 04:29:51;;;;;;;;;;;10.10;99.90;;;;;;6245655;23;19910;-72
2022/03/17 04:32:16;;;;;;;;;;;10.10;99.90;;;;;;6218593;23;19984;-72
2022/03/17 04:34:42;;;;;;;;;;;10.10;99.90;;;;;;6246328;23;19927;-72
2022/03/17 04:37:08;;;;;;;;;;;10.10;99.90;;;;;;6245726;23;19979;-72
2022/03/17 04:39:34;;;;;;;;;;;10.20;99.90;;;;;;6245967;23;19954;-72
2022/03/17 04:41:59;;;;;;;;;;;10.20;99.90;;;;;;6245661;23;19904;-69
2022/03/17 04:44:25;;;;;;;;;;;10.20;99.90;;;;;;6245350;23;19986;-70
2022/03/17 04:46:51;;;;;;;;;;;10.20;99.90;;;;;;6244476;23;19912;-72
2022/03/17 04:49:17;;;;;;;;;;;10.30;99.90;;;;;;6244692;23;19904;-72
2022/03/17 04:51:43;;;;;;;;;;;10.40;99.90;;;;;;6244262;23;20017;-71
2022/03/17 04:54:09;;;;;;;;;;;10.40;99.90;;;;;;6217503;23;20312;-72
2022/03/17 04:56:40;;;;;;;;;;;10.50;99.90;;;;;;6245673;23;19907;-74
2022/03/17 04:59:06;;;;;;;;;;;10.50;99.90;;;;;;6245202;23;20015;-71
2022/03/17 05:01:32;;;;;;;;;;;10.50;99.90;;;;;;6218398;23;19911;-72
2022/03/17 05:03:58;;;;;;;;;;;10.60;99.90;;;;;;6245373;23;20262;-72
2022/03/17 05:06:24;;;;;;;;;;;10.50;99.90;;;;;;6218183;23;19907;-72
2022/03/17 05:08:50;;;;;;;;;;;10.50;99.90;;;;;;6245490;23;19919;-72
2022/03/17 05:11:15;;;;;;;;;;;10.50;99.90;;;;;;6245276;23;19927;-71
2022/03/17 05:13:43;;;;;;;;;;;10.50;99.90;;;;;;6244795;23;19904;-69
2022/03/17 05:16:09;;;;;;;;;;;10.50;99.90;;;;;;6245316;23;19963;-71
2022/03/17 05:18:35;;;;;;;;;;;10.60;99.90;;;;;;6246257;23;20328;-73
2022/03/17 05:21:01;;;;;;;;;;;10.60;99.90;;;;;;6246199;23;19903;-72
2022/03/17 05:23:27;;;;;;;;;;;10.60;99.90;;;;;;6246265;23;20227;-71
2022/03/17 05:25:53;;;;;;;;;;;10.50;99.90;;;;;;6220914;23;19904;-72
2022/03/17 05:28:19;;;;;;;;;;;10.50;99.90;;;;;;6248074;23;20255;-71
2022/03/17 05:30:45;;;;;;;;;;;10.50;99.90;;;;;;6247822;23;19914;-72
2022/03/17 05:33:12;;;;;;;;;;;10.50;99.90;;;;;;6247874;23;20340;-72
2022/03/17 05:35:38;;;;;;;;;;;10.60;99.90;;;;;;6247933;23;19910;-71
2022/03/17 05:38:04;;;;;;;;;;;10.60;99.90;;;;;;6248467;23;20051;-72
2022/03/17 05:40:30;;;;;;;;;;;10.60;99.90;;;;;;6248119;23;19911;-71
2022/03/17 05:42:57;;;;;;;;;;;10.60;99.90;;;;;;6247864;23;19903;-72
2022/03/17 05:45:27;;;;;;;;;;;10.60;99.90;;;;;;6248121;23;19907;-71
2022/03/17 05:47:57;;;;;;;;;;;10.70;99.90;;;;;;6220018;23;20332;-71
2022/03/17 05:50:24;;;;;;;;;;;10.70;99.90;;;;;;6246864;23;19903;-71
2022/03/17 05:52:50;;;;;;;;;;;10.80;99.90;;;;;;6220225;23;19914;-71
2022/03/17 05:55:17;;;;;;;;;;;10.90;99.90;;;;;;6246602;23;19986;-71
2022/03/17 05:57:43;;;;;;;;;;;10.90;99.90;;;;;;6246157;23;19915;-70
2022/03/17 06:00:11;;;;;;;;;;;11.20;99.90;;;;;;6246429;23;19903;-72
2022/03/17 06:02:37;;;;;;;;;;;11.50;99.90;;;;;;6247915;23;19904;-72
2022/03/17 06:05:04;;;;;;;;;;;11.50;99.90;;;;;;6247616;23;19904;-72
2022/03/17 06:07:38;;;;;;;;;;;11.40;99.90;;;;;;6247899;23;20276;-72
2022/03/17 06:10:08;;;;;;;;;;;11.30;99.90;;;;;;6248230;23;19904;-72
2022/03/17 06:12:34;;;;;;;;;;;11.30;99.90;;;;;;6247323;23;20324;-73
2022/03/17 06:15:02;;;;;;;;;;;11.30;99.90;;;;;;6247887;23;19973;-73
2022/03/17 06:17:50;;;;;;;;;;;11.30;99.90;;;;;;6247585;23;19903;-73
2022/03/17 06:20:18;;;;;;;;;;;11.50;99.90;;;;;;6248398;23;20308;-73
2022/03/17 06:22:44;;;;;;;;;;;11.80;99.90;;;;;;6220555;23;19919;-73
2022/03/17 06:25:14;;;;;;;;;;;12.20;99.90;;;;;;6247578;23;19943;-75
2022/03/17 06:27:42;;;;;;;;;;;12.80;99.90;;;;;;6247702;23;19916;-73
2022/03/17 06:30:09;;;;;;;;;;;13.20;99.90;;;;;;6247775;23;19958;-73
2022/03/17 06:32:38;;;;;;;;;;;13.50;99.90;;;;;;6245584;23;19907;-73
2022/03/17 06:35:04;;;;;;;;;;;13.50;99.90;;;;;;6243235;23;19910;-73
2022/03/17 06:37:29;;;;;;;;;;;13.00;99.90;;;;;;6246519;23;19904;-73
2022/03/17 06:39:55;;;;;;;;;;;12.70;99.90;;;;;;6246393;23;19904;-73
2022/03/17 06:42:23;;;;;;;;;;;12.50;99.90;;;;;;6218993;23;19911;-74
2022/03/17 06:44:49;;;;;;;;;;;12.40;99.90;;;;;;6218052;23;19904;-72
2022/03/17 06:47:15;;;;;;;;;;;12.10;99.90;;;;;;6246874;23;19916;-73
2022/03/17 06:49:41;;;;;;;;;;;12.00;99.90;;;;;;6245481;23;20228;-73
2022/03/17 06:52:40;;;;;;;;;;;12.30;99.90;;;;;;6244968;23;19904;-74
2022/03/17 06:55:07;;;;;;;;;;;12.50;99.90;;;;;;6245122;23;19980;-73
2022/03/17 06:57:33;;;;;;;;;;;12.40;99.90;;;;;;6244283;23;19999;-73
2022/03/17 07:00:07;;;;;;;;;;;12.40;99.90;;;;;;6244227;23;20199;-73
2022/03/17 07:02:32;;;;;;;;;;;12.40;99.90;;;;;;6244754;23;19991;-74
2022/03/17 07:04:58;;;;;;;;;;;12.30;99.90;;;;;;6245137;23;19904;-74
2022/03/17 07:07:24;;;;;;;;;;;12.30;99.90;;;;;;6244546;23;19912;-74
2022/03/17 07:09:50;;;;;;;;;;;12.10;99.90;;;;;;6244982;23;19910;-74
2022/03/17 07:12:16;;;;;;;;;;;12.10;99.90;;;;;;6246429;23;19915;-73
2022/03/17 07:14:41;;;;;;;;;;;12.00;99.90;;;;;;6218257;23;20228;-74
2022/03/17 07:17:07;;;;;;;;;;;11.90;99.90;;;;;;6244930;23;19907;-73
2022/03/17 07:19:35;;;;;;;;;;;12.00;99.90;;;;;;6246087;23;19904;-73
2022/03/17 07:22:10;;;;;;;;;;;12.20;99.90;;;;;;6245478;23;19904;-74
2022/03/17 07:24:35;;;;;;;;;;;12.30;99.90;;;;;;6245684;23;19992;-73
2022/03/17 07:27:02;;;;;;;;;;;12.30;99.90;;;;;;6246479;23;19949;-74
2022/03/17 07:29:31;;;;;;;;;;;12.40;99.90;;;;;;6246656;23;19907;-73
2022/03/17 07:31:57;;;;;;;;;;;12.30;99.90;;;;;;6219091;23;19910;-73
2022/03/17 07:34:24;;;;;;;;;;;12.40;99.90;;;;;;6246239;23;19904;-73
2022/03/17 07:36:51;;;;;;;;;;;12.50;99.90;;;;;;6246129;23;19911;-73
2022/03/17 07:39:17;;;;;;;;;;;12.50;99.90;;;;;;6246198;23;19908;-73
2022/03/17 07:41:43;;;;;;;;;;;12.60;99.90;;;;;;6246693;23;19973;-71
2022/03/17 07:44:09;;;;;;;;;;;12.90;99.90;;;;;;6245602;23;19904;-69
2022/03/17 07:46:34;;;;;;;;;;;13.20;99.90;;;;;;6246086;23;19903;-74
2022/03/17 07:49:00;;;;;;;;;;;13.50;99.90;;;;;;6218951;23;19989;-73
2022/03/17 07:51:26;;;;;;;;;;;13.80;99.90;;;;;;6246448;23;19953;-71
2022/03/17 07:53:52;;;;;;;;;;;14.10;99.90;;;;;;6245719;23;19903;-72
2022/03/17 07:56:24;;;;;;;;;;;14.10;99.90;;;;;;6218576;23;19915;-71
2022/03/17 07:58:50;;;;;;;;;;;14.00;99.90;;;;;;6246028;23;19920;-74
2022/03/17 08:01:17;;;;;;;;;;;14.10;99.90;;;;;;6245617;23;20001;-70
2022/03/17 08:03:43;;;;;;;;;;;14.40;99.90;;;;;;6245494;23;19907;-71
2022/03/17 08:06:09;;;;;;;;;;;14.30;99.90;;;;;;6245971;23;20301;-72
2022/03/17 08:08:35;;;;;;;;;;;14.30;99.90;;;;;;6245623;23;19931;-75
2022/03/17 08:11:01;;;;;;;;;;;14.40;99.90;;;;;;6245848;23;19903;-75
2022/03/17 08:13:27;;;;;;;;;;;14.60;99.90;;;;;;6245327;23;19911;-74
2022/03/17 08:15:54;;;;;;;;;;;14.50;99.90;;;;;;6245743;23;19904;-74
2022/03/17 08:18:20;;;;;;;;;;;14.50;99.90;;;;;;6246747;23;19903;-74
2022/03/17 08:20:46;;;;;;;;;;;14.70;99.90;;;;;;6245851;23;19912;-74
2022/03/17 08:23:15;;;;;;;;;;;14.90;99.90;;;;;;6245890;23;19957;-73
2022/03/17 08:25:41;;;;;;;;;;;14.90;99.90;;;;;;6245874;23;19904;-73
2022/03/17 08:28:08;;;;;;;;;;;15.20;99.90;;;;;;6246626;23;20336;-74
2022/03/17 08:30:36;;;;;;;;;;;15.20;99.90;;;;;;6245968;23;19904;-74
2022/03/17 08:33:02;;;;;;;;;;;15.30;99.90;;;;;;6245850;23;19915;-74
2022/03/17 08:35:27;;;;;;;;;;;15.50;99.90;;;;;;6245375;23;19904;-74
2022/03/17 08:37:53;;;;;;;;;;;15.60;99.90;;;;;;6244897;23;19950;-75
2022/03/17 08:40:20;;;;;;;;;;;15.50;99.90;;;;;;6245434;23;20378;-73
2022/03/17 08:42:46;;;;;;;;;;;15.50;99.90;;;;;;6218729;23;19930;-74
2022/03/17 08:50:43;;;;;;;;;;;15.40;99.90;;;;;;6245004;23;19979;-72
2022/03/17 08:53:12;;;;;;;;;;;15.40;99.90;;;;;;6244409;23;19904;-72
2022/03/17 08:55:39;;;;;;;;;;;15.30;99.90;;;;;;6244288;23;19904;-73
2022/03/17 08:58:05;;;;;;;;;;;15.50;99.90;;;;;;6244312;23;19915;-74
2022/03/17 09:00:34;;;;;;;;;;;15.50;99.90;;;;;;6246757;23;20305;-74
2022/03/17 09:03:02;;;;;;;;;;;15.30;99.90;;;;;;6246295;23;19970;-74
2022/03/17 09:05:30;;;;;;;;;;;15.60;99.90;;;;;;6246257;23;20224;-74
2022/03/17 09:08:08;;;;;;;;;;;15.60;99.90;;;;;;6218907;23;19935;-72
2022/03/17 09:10:35;;;;;;;;;;;15.60;99.90;;;;;;6219018;23;19904;-72
2022/03/17 09:13:07;;;;;;;;;;;15.40;99.90;;;;;;6246301;23;19904;-72
2022/03/17 09:15:33;;;;;;;;;;;15.60;99.90;;;;;;6246071;23;19914;-73
2022/03/17 09:17:59;;;;;;;;;;;15.70;99.90;;;;;;6246866;23;19927;-71
2022/03/17 09:20:25;;;;;;;;;;;15.60;99.90;;;;;;6220461;23;20196;-71
2022/03/17 09:22:52;;;;;;;;;;;15.60;99.90;;;;;;6246585;23;19983;-72
2022/03/17 09:25:23;;;;;;;;;;;15.40;99.90;;;;;;6246537;23;19934;-72
2022/03/17 09:27:52;;;;;;;;;;;15.30;99.90;;;;;;6246573;23;19911;-71
2022/03/17 09:30:19;;;;;;;;;;;15.40;99.90;;;;;;6246612;23;19914;-71
2022/03/17 09:32:47;;;;;;;;;;;15.40;99.90;;;;;;6246496;23;19903;-71
2022/03/17 09:35:14;;;;;;;;;;;15.20;99.90;;;;;;6246816;23;19904;-71
2022/03/17 09:37:40;;;;;;;;;;;15.20;99.90;;;;;;6246608;23;19921;-72
2022/03/17 09:40:07;;;;;;;;;;;15.20;99.90;;;;;;6246209;23;20284;-71
2022/03/17 09:42:34;;;;;;;;;;;15.40;99.90;;;;;;6246399;23;19912;-72
2022/03/17 09:44:59;;;;;;;;;;;15.40;99.90;;;;;;6246669;23;20043;-71
2022/03/17 09:47:28;;;;;;;;;;;15.60;99.90;;;;;;6246093;23;20031;-72
2022/03/17 09:49:56;;;;;;;;;;;15.40;99.90;;;;;;6246275;23;19911;-72
2022/03/17 09:52:22;;;;;;;;;;;15.40;99.90;;;;;;6245753;23;19911;-72
2022/03/17 09:54:48;;;;;;;;;;;15.40;99.90;;;;;;6246322;23;19908;-73
2022/03/17 09:57:18;;;;;;;;;;;15.70;99.90;;;;;;6218683;23;20325;-71
2022/03/17 09:59:53;;;;;;;;;;;15.80;99.90;;;;;;6246418;23;19911;-72
2022/03/17 10:02:20;;;;;;;;;;;15.90;99.90;;;;;;6245861;23;19903;-72
2022/03/17 10:04:47;;;;;;;;;;;16.00;99.90;;;;;;6245752;23;19915;-71
2022/03/17 10:07:18;;;;;;;;;;;16.10;99.90;;;;;;6245729;23;20312;-72
2022/03/17 10:09:44;;;;;;;;;;;16.20;99.90;;;;;;6245581;23;19904;-71
2022/03/17 10:12:11;;;;;;;;;;;16.20;99.90;;;;;;6218713;23;19995;-72
2022/03/17 10:14:41;;;;;;;;;;;16.40;99.90;;;;;;6218997;23;19946;-72
2022/03/17 10:17:10;;;;;;;;;;;16.70;99.90;;;;;;6246340;23;19910;-72
2022/03/17 10:19:36;;;;;;;;;;;16.30;99.90;;;;;;6246109;23;19937;-72
2022/03/17 10:22:09;;;;;;;;;;;16.20;99.90;;;;;;6218929;23;19983;-71
2022/03/17 10:24:36;;;;;;;;;;;16.20;99.90;;;;;;6246093;23;20359;-72
2022/03/17 10:27:04;;;;;;;;;;;16.30;99.90;;;;;;6245890;23;20010;-71
2022/03/17 10:29:30;;;;;;;;;;;16.20;99.90;;;;;;6245957;23;20308;-71
2022/03/17 10:32:06;;;;;;;;;;;15.90;99.90;;;;;;6245876;23;20003;-72
2022/03/17 10:34:51;;;;;;;;;;;16.00;99.90;;;;;;6246578;23;19911;-71
2022/03/17 10:37:21;;;;;;;;;;;16.20;99.90;;;;;;6245934;23;19910;-71
2022/03/17 10:39:51;;;;;;;;;;;16.20;99.90;;;;;;6245796;23;20335;-72
2022/03/17 10:42:19;;;;;;;;;;;16.50;99.90;;;;;;6245790;23;19904;-72
2022/03/17 10:44:48;;;;;;;;;;;16.70;99.90;;;;;;6245420;23;19914;-71
2022/03/17 10:47:21;;;;;;;;;;;16.40;99.90;;;;;;6245576;23;19917;-71
2022/03/17 10:50:02;;;;;;;;;;;16.60;99.90;;;;;;6245958;23;20292;-71
2022/03/17 10:52:48;;;;;;;;;;;16.60;99.90;;;;;;6218381;23;19911;-70
2022/03/17 10:55:14;;;;;;;;;;;16.90;99.90;;;;;;6217985;23;19903;-71
2022/03/17 10:57:41;;;;;;;;;;;17.30;99.90;;;;;;6244307;23;19981;-70
2022/03/17 11:00:12;;;;;;;;;;;17.10;99.90;;;;;;6245596;23;19959;-70
2022/03/17 11:02:38;;;;;;;;;;;17.10;99.90;;;;;;6244860;23;19903;-71
2022/03/17 11:05:10;;;;;;;;;;;16.60;99.90;;;;;;6244963;23;19911;-71
2022/03/17 11:07:38;;;;;;;;;;;16.40;99.90;;;;;;6245052;23;19919;-72
2022/03/17 11:10:07;;;;;;;;;;;16.40;99.90;;;;;;6244850;23;19904;-71
2022/03/17 11:12:37;;;;;;;;;;;16.80;99.90;;;;;;6244879;23;19910;-73
2022/03/17 11:15:03;;;;;;;;;;;17.20;99.90;;;;;;6245148;23;19907;-73
2022/03/17 11:17:46;;;;;;;;;;;17.10;99.90;;;;;;6244972;23;19903;-73
2022/03/17 11:20:12;;;;;;;;;;;17.20;99.90;;;;;;6216184;23;20288;-72
2022/03/17 11:22:39;;;;;;;;;;;16.80;99.90;;;;;;6242997;23;19903;-71
2022/03/17 11:25:24;;;;;;;;;;;17.10;99.90;;;;;;6243364;23;20328;-71
2022/03/17 11:27:55;;;;;;;;;;;17.10;99.90;;;;;;6243582;23;19915;-70
2022/03/17 11:30:22;;;;;;;;;;;17.10;99.90;;;;;;6217778;23;19910;-71
2022/03/17 11:32:49;;;;;;;;;;;17.10;99.90;;;;;;6245344;23;19928;-71
2022/03/17 11:35:18;;;;;;;;;;;16.90;99.90;;;;;;6244789;23;19970;-71
2022/03/17 11:37:45;;;;;;;;;;;16.80;99.90;;;;;;6245258;23;19904;-67
2022/03/17 11:40:13;;;;;;;;;;;16.80;99.90;;;;;;6244972;23;19903;-72
2022/03/17 11:42:56;;;;;;;;;;;17.10;99.90;;;;;;6244887;23;19936;-71
2022/03/17 11:45:22;;;;;;;;;;;17.20;99.90;;;;;;6245168;23;19904;-73
2022/03/17 11:47:48;;;;;;;;;;;16.80;99.90;;;;;;6245111;23;19911;-72
2022/03/17 11:50:25;;;;;;;;;;;16.90;99.90;;;;;;6244939;23;20388;-71
2022/03/17 11:52:52;;;;;;;;;;;16.70;99.90;;;;;;6244990;23;19904;-72
2022/03/17 11:55:36;;;;;;;;;;;16.70;99.90;;;;;;6245552;23;19943;-71
2022/03/17 11:58:23;;;;;;;;;;;17.00;99.90;;;;;;6245974;23;19915;-72
2022/03/17 12:01:12;;;;;;;;;;;17.10;99.90;;;;;;6243719;23;19910;-71
2022/03/17 12:03:41;;;;;;;;;;;17.20;99.90;;;;;;6243754;23;19949;-72
2022/03/17 12:06:13;;;;;;;;;;;17.30;99.90;;;;;;6244291;23;19914;-72
2022/03/17 12:08:49;;;;;;;;;;;17.20;99.90;;;;;;6245338;23;19911;-71
2022/03/17 12:11:16;;;;;;;;;;;17.30;99.90;;;;;;6245862;23;20225;-71
2022/03/17 12:13:42;;;;;;;;;;;17.10;99.90;;;;;;6243977;23;19916;-71
2022/03/17 12:16:11;;;;;;;;;;;17.30;99.90;;;;;;6243623;23;19923;-73
2022/03/17 12:18:56;;;;;;;;;;;17.40;99.90;;;;;;6244472;23;19904;-70
2022/03/17 12:21:41;;;;;;;;;;;17.40;99.90;;;;;;6217395;23;19910;-71
2022/03/17 12:24:07;;;;;;;;;;;17.90;99.90;;;;;;6217513;23;19904;-71
2022/03/17 12:26:33;;;;;;;;;;;18.00;99.90;;;;;;6243853;23;20158;-72
2022/03/17 12:28:58;;;;;;;;;;;18.10;99.90;;;;;;6244331;23;19912;-72
2022/03/17 12:31:24;;;;;;;;;;;18.00;99.90;;;;;;6244295;23;20346;-73
2022/03/17 12:33:51;;;;;;;;;;;17.90;99.90;;;;;;6245190;23;19903;-72
2022/03/17 12:36:17;;;;;;;;;;;17.90;99.90;;;;;;6244600;23;20320;-72
2022/03/17 12:38:42;;;;;;;;;;;18.00;99.90;;;;;;6244990;23;19995;-72
2022/03/17 12:41:14;;;;;;;;;;;18.00;99.90;;;;;;6217871;23;19910;-72
2022/03/17 12:43:41;;;;;;;;;;;18.00;99.90;;;;;;6244378;23;19903;-72
2022/03/17 12:46:07;;;;;;;;;;;18.00;99.90;;;;;;6244525;23;19903;-71
2022/03/17 12:48:34;;;;;;;;;;;18.00;99.90;;;;;;6216931;23;20338;-73
2022/03/17 12:51:05;;;;;;;;;;;17.70;99.90;;;;;;6243443;23;19925;-73
2022/03/17 12:53:31;;;;;;;;;;;17.50;99.90;;;;;;6244408;23;19958;-72
2022/03/17 12:55:56;;;;;;;;;;;17.40;99.90;;;;;;6244346;23;19908;-71
2022/03/17 12:58:25;;;;;;;;;;;17.40;99.90;;;;;;6243185;23;19994;-73
2022/03/17 13:01:05;;;;;;;;;;;17.40;99.90;;;;;;6244006;23;20232;-73
2022/03/17 13:03:31;;;;;;;;;;;17.40;99.90;;;;;;6244771;23;20378;-72
2022/03/17 13:08:44;;;;;;;;;;;16.80;99.90;;;;;;6244668;23;19934;-72
2022/03/17 13:16:42;;;;;;;;;;;17.00;99.90;;;;;;6245379;23;19914;-73
2022/03/17 13:19:08;;;;;;;;;;;17.00;99.90;;;;;;6245873;23;19919;-72
2022/03/17 13:21:34;;;;;;;;;;;16.90;99.90;;;;;;6245447;23;19908;-72
2022/03/17 13:24:11;;;;;;;;;;;16.90;99.90;;;;;;6246327;23;20057;-72
2022/03/17 13:26:37;;;;;;;;;;;16.90;99.90;;;;;;6245932;23;20229;-72
2022/03/17 13:29:04;;;;;;;;;;;16.80;99.90;;;;;;6245922;23;19911;-73
2022/03/17 13:31:34;;;;;;;;;;;16.70;99.90;;;;;;6217952;23;19903;-72
2022/03/17 13:33:59;;;;;;;;;;;16.60;99.90;;;;;;6244883;23;19903;-73
2022/03/17 13:36:45;;;;;;;;;;;16.70;99.90;;;;;;6245299;23;20224;-72
2022/03/17 13:39:11;;;;;;;;;;;16.70;99.90;;;;;;6245514;23;19935;-72
2022/03/17 13:41:37;;;;;;;;;;;16.80;99.90;;;;;;6246394;23;19915;-71
2022/03/17 13:44:08;;;;;;;;;;;17.10;99.90;;;;;;6245152;23;19954;-72
2022/03/17 13:46:39;;;;;;;;;;;17.30;99.90;;;;;;6247639;23;19998;-72
2022/03/17 13:49:14;;;;;;;;;;;17.30;99.90;;;;;;6247118;23;19912;-74
2022/03/17 13:51:40;;;;;;;;;;;17.20;99.90;;;;;;6246605;23;20239;-73
2022/03/17 13:54:06;;;;;;;;;;;17.40;99.90;;;;;;6246875;23;19908;-72
2022/03/17 13:56:35;;;;;;;;;;;17.40;99.90;;;;;;6219776;23;19903;-72
2022/03/17 13:59:00;;;;;;;;;;;17.30;99.90;;;;;;6246712;23;20177;-73
2022/03/17 14:01:26;;;;;;;;;;;17.10;99.90;;;;;;6246915;23;19946;-72
2022/03/17 14:03:59;;;;;;;;;;;17.10;99.90;;;;;;6247504;23;19904;-73
2022/03/17 14:06:31;;;;;;;;;;;16.80;99.90;;;;;;6247259;23;20232;-73
2022/03/17 14:08:59;;;;;;;;;;;16.70;99.90;;;;;;6246758;23;19912;-71
2022/03/17 14:11:27;;;;;;;;;;;16.40;99.90;;;;;;6246884;23;19904;-72
2022/03/17 14:13:54;;;;;;;;;;;16.40;99.90;;;;;;6246801;23;19978;-71
2022/03/17 14:16:21;;;;;;;;;;;16.40;99.90;;;;;;6246902;23;19903;-72
2022/03/17 14:18:48;;;;;;;;;;;16.10;99.90;;;;;;6246964;23;19931;-72
2022/03/17 14:21:14;;;;;;;;;;;16.20;99.90;;;;;;6220285;23;19978;-73
2022/03/17 14:26:28;;;;;;;;;;;16.10;99.90;;;;;;6247408;23;19914;-72
2022/03/17 14:28:58;;;;;;;;;;;16.00;99.90;;;;;;6247643;23;19918;-73
2022/03/17 14:31:28;;;;;;;;;;;16.00;99.90;;;;;;6247076;23;20237;-72
2022/03/17 14:33:53;;;;;;;;;;;16.00;99.90;;;;;;6247447;23;19910;-75
2022/03/17 14:36:19;;;;;;;;;;;16.10;99.90;;;;;;6246863;23;19986;-74
2022/03/17 14:38:46;;;;;;;;;;;16.30;99.90;;;;;;6246891;23;20344;-75
2022/03/17 14:41:15;;;;;;;;;;;16.40;99.90;;;;;;6246975;23;19950;-75
2022/03/17 14:43:41;;;;;;;;;;;16.80;99.90;;;;;;6247237;23;20309;-74
2022/03/17 14:46:07;;;;;;;;;;;17.10;99.90;;;;;;6246842;23;19958;-73
2022/03/17 14:48:34;;;;;;;;;;;16.90;99.90;;;;;;6218715;23;19915;-73